sensor_id;sensor_type;location;lat;lon;timestamp;temperature;humidity
17236;DHT22;8734;59.272;17.780;2023-03-22T00:02:28;2.80;99.90
17236;DHT22;8734;59.272;17.780;2023-03-22T00:04:56;2.90;99.90
17236;DHT22;8734;59.272;17.780;2023-03-22T00:07:25;2.90;99.90
17236;DHT22;8734;59.272;17.780;2023-03-22T00:09:53;2.90;99.90
17236;DHT22;8734;59.272;17.780;2023-03-22T00:12:22;2.90;99.90
17236;DHT22;8734;59.272;17.780;2023-03-22T00:14:50;2.90;99.90
17236;DHT22;8734;59.272;17.780;2023-03-22T00:17:19;2.90;99.90
17236;DHT22;8734;59.272;17.780;2023-03-22T00:19:50;2.90;99.90
17236;DHT22;8734;59.272;17.780;2023-03-22T00:22:20;2.90;99.90
17236;DHT22;8734;59.272;17.780;2023-03-22T00:24:48;2.90;99.90
17236;DHT22;8734;59.272;17.780;2023-03-22T00:27:17;2.90;99.90
17236;DHT22;8734;59.272;17.780;2023-03-22T00:29:45;2.90;99.90
17236;DHT22;8734;59.272;17.780;2023-03-22T00:32:13;2.90;99.90
17236;DHT22;8734;59.272;17.780;2023-03-22T00:34:42;2.90;99.90
17236;DHT22;8734;59.272;17.780;2023-03-22T00:37:11;2.90;99.90
17236;DHT22;8734;59.272;17.780;2023-03-22T00:39:42;2.90;99.90
17236;DHT22;8734;59.272;17.780;2023-03-22T00:42:10;2.90;99.90
17236;DHT22;8734;59.272;17.780;2023-03-22T00:44:39;2.90;99.90
17236;DHT22;8734;59.272;17.780;2023-03-22T00:47:07;3.00;99.90
17236;DHT22;8734;59.272;17.780;2023-03-22T00:49:35;3.00;99.90
17236;DHT22;8734;59.272;17.780;2023-03-22T00:52:04;3.00;99.90
17236;DHT22;8734;59.272;17.780;2023-03-22T00:54:34;3.00;99.90
17236;DHT22;8734;59.272;17.780;2023-03-22T00:57:02;3.00;99.90
17236;DHT22;8734;59.272;17.780;2023-03-22T00:59:30;3.00;99.90
17236;DHT22;8734;59.272;17.780;2023-03-22T01:02:04;3.00;99.90
17236;DHT22;8734;59.272;17.780;2023-03-22T01:04:32;3.00;99.90
17236;DHT22;8734;59.272;17.780;2023-03-22T01:07:01;3.00;99.90
17236;DHT22;8734;59.272;17.780;2023-03-22T01:09:35;3.00;99.90
17236;DHT22;8734;59.272;17.780;2023-03-22T01:12:03;3.00;99.90
17236;DHT22;8734;59.272;17.780;2023-03-22T01:14:31;3.00;99.90
17236;DHT22;8734;59.272;17.780;2023-03-22T01:17:00;3.00;99.90
17236;DHT22;8734;59.272;17.780;2023-03-22T01:19:28;3.00;99.90
17236;DHT22;8734;59.272;17.780;2023-03-22T01:21:56;3.00;99.90
17236;DHT22;8734;59.272;17.780;2023-03-22T01:24:25;3.00;99.90
17236;DHT22;8734;59.272;17.780;2023-03-22T01:26:55;3.00;99.90
17236;DHT22;8734;59.272;17.780;2023-03-22T01:29:24;3.00;99.90
17236;DHT22;8734;59.272;17.780;2023-03-22T01:31:53;3.00;99.90
17236;DHT22;8734;59.272;17.780;2023-03-22T01:34:22;3.00;99.90
17236;DHT22;8734;59.272;17.780;2023-03-22T01:36:53;3.10;99.90
17236;DHT22;8734;59.272;17.780;2023-03-22T01:39:21;3.10;99.90
17236;DHT22;8734;59.272;17.780;2023-03-22T01:41:49;3.00;99.90
17236;DHT22;8734;59.272;17.780;2023-03-22T01:44:21;3.10;99.90
17236;DHT22;8734;59.272;17.780;2023-03-22T01:46:50;3.10;99.90
17236;DHT22;8734;59.272;17.780;2023-03-22T01:49:21;3.10;99.90
17236;DHT22;8734;59.272;17.780;2023-03-22T01:51:53;3.00;99.90
17236;DHT22;8734;59.272;17.780;2023-03-22T01:54:27;3.10;99.90
17236;DHT22;8734;59.272;17.780;2023-03-22T01:56:57;3.10;99.90
17236;DHT22;8734;59.272;17.780;2023-03-22T01:59:27;3.10;99.90
17236;DHT22;8734;59.272;17.780;2023-03-22T02:01:56;3.10;99.90
17236;DHT22;8734;59.272;17.780;2023-03-22T02:04:27;3.10;99.90
17236;DHT22;8734;59.272;17.780;2023-03-22T02:07:02;3.10;99.90
17236;DHT22;8734;59.272;17.780;2023-03-22T02:09:36;3.10;99.90
17236;DHT22;8734;59.272;17.780;2023-03-22T02:12:13;3.10;99.90
17236;DHT22;8734;59.272;17.780;2023-03-22T02:14:57;3.10;99.90
17236;DHT22;8734;59.272;17.780;2023-03-22T02:17:36;3.20;99.90
17236;DHT22;8734;59.272;17.780;2023-03-22T02:26:44;3.20;99.90
17236;DHT22;8734;59.272;17.780;2023-03-22T02:29:21;3.20;99.90
17236;DHT22;8734;59.272;17.780;2023-03-22T02:38:57;3.20;99.90
17236;DHT22;8734;59.272;17.780;2023-03-22T02:41:37;3.20;99.90
17236;DHT22;8734;59.272;17.780;2023-03-22T02:44:18;3.20;99.90
17236;DHT22;8734;59.272;17.780;2023-03-22T02:46:55;3.30;99.90
17236;DHT22;8734;59.272;17.780;2023-03-22T02:49:32;3.30;99.90
17236;DHT22;8734;59.272;17.780;2023-03-22T02:52:05;3.30;99.90
17236;DHT22;8734;59.272;17.780;2023-03-22T02:54:41;3.30;99.90
17236;DHT22;8734;59.272;17.780;2023-03-22T02:57:15;3.30;99.90
17236;DHT22;8734;59.272;17.780;2023-03-22T02:59:46;3.30;99.90
17236;DHT22;8734;59.272;17.780;2023-03-22T03:02:16;3.30;99.90
17236;DHT22;8734;59.272;17.780;2023-03-22T03:04:48;3.30;99.90
17236;DHT22;8734;59.272;17.780;2023-03-22T03:07:21;3.40;99.90
17236;DHT22;8734;59.272;17.780;2023-03-22T03:09:53;3.40;99.90
17236;DHT22;8734;59.272;17.780;2023-03-22T03:12:24;3.40;99.90
17236;DHT22;8734;59.272;17.780;2023-03-22T03:14:54;3.30;99.90
17236;DHT22;8734;59.272;17.780;2023-03-22T03:17:29;3.40;99.90
17236;DHT22;8734;59.272;17.780;2023-03-22T03:20:09;3.40;99.90
17236;DHT22;8734;59.272;17.780;2023-03-22T03:22:52;3.50;99.90
17236;DHT22;8734;59.272;17.780;2023-03-22T03:25:30;3.50;99.90
17236;DHT22;8734;59.272;17.780;2023-03-22T03:28:04;3.50;99.90
17236;DHT22;8734;59.272;17.780;2023-03-22T03:30:39;3.50;99.90
17236;DHT22;8734;59.272;17.780;2023-03-22T03:33:14;3.50;99.90
17236;DHT22;8734;59.272;17.780;2023-03-22T03:35:48;3.60;99.90
17236;DHT22;8734;59.272;17.780;2023-03-22T03:38:20;3.60;99.90
17236;DHT22;8734;59.272;17.780;2023-03-22T03:40:53;3.60;99.90
17236;DHT22;8734;59.272;17.780;2023-03-22T03:43:23;3.70;99.90
17236;DHT22;8734;59.272;17.780;2023-03-22T03:45:53;3.70;99.90
17236;DHT22;8734;59.272;17.780;2023-03-22T03:48:23;3.80;99.90
17236;DHT22;8734;59.272;17.780;2023-03-22T03:50:55;3.80;99.90
17236;DHT22;8734;59.272;17.780;2023-03-22T03:53:24;3.80;99.90
17236;DHT22;8734;59.272;17.780;2023-03-22T03:55:54;3.80;99.90
17236;DHT22;8734;59.272;17.780;2023-03-22T03:58:23;3.80;99.90
17236;DHT22;8734;59.272;17.780;2023-03-22T04:00:51;3.80;99.90
17236;DHT22;8734;59.272;17.780;2023-03-22T04:03:19;3.80;99.90
17236;DHT22;8734;59.272;17.780;2023-03-22T04:05:48;3.80;99.90
17236;DHT22;8734;59.272;17.780;2023-03-22T04:08:16;3.80;99.90
17236;DHT22;8734;59.272;17.780;2023-03-22T04:10:48;3.80;99.90
17236;DHT22;8734;59.272;17.780;2023-03-22T04:13:19;3.80;99.90
17236;DHT22;8734;59.272;17.780;2023-03-22T04:15:51;3.80;99.90
17236;DHT22;8734;59.272;17.780;2023-03-22T04:18:20;3.80;99.90
17236;DHT22;8734;59.272;17.780;2023-03-22T04:20:49;3.80;99.90
17236;DHT22;8734;59.272;17.780;2023-03-22T04:23:19;3.80;99.90
17236;DHT22;8734;59.272;17.780;2023-03-22T04:25:49;3.80;99.90
17236;DHT22;8734;59.272;17.780;2023-03-22T04:28:19;3.80;99.90
17236;DHT22;8734;59.272;17.780;2023-03-22T04:30:47;3.80;99.90
17236;DHT22;8734;59.272;17.780;2023-03-22T04:33:18;3.80;99.90
17236;DHT22;8734;59.272;17.780;2023-03-22T04:35:49;3.80;99.90
17236;DHT22;8734;59.272;17.780;2023-03-22T04:38:23;3.80;99.90
17236;DHT22;8734;59.272;17.780;2023-03-22T04:40:51;3.80;99.90
17236;DHT22;8734;59.272;17.780;2023-03-22T04:43:22;3.80;99.90
17236;DHT22;8734;59.272;17.780;2023-03-22T04:45:51;3.80;99.90
17236;DHT22;8734;59.272;17.780;2023-03-22T04:48:24;3.80;99.90
17236;DHT22;8734;59.272;17.780;2023-03-22T04:50:54;3.80;99.90
17236;DHT22;8734;59.272;17.780;2023-03-22T04:53:22;3.80;99.90
17236;DHT22;8734;59.272;17.780;2023-03-22T04:55:53;3.80;99.90
17236;DHT22;8734;59.272;17.780;2023-03-22T04:58:24;3.80;99.90
17236;DHT22;8734;59.272;17.780;2023-03-22T05:00:53;3.90;99.90
17236;DHT22;8734;59.272;17.780;2023-03-22T05:03:21;3.90;99.90
17236;DHT22;8734;59.272;17.780;2023-03-22T05:05:50;3.90;99.90
17236;DHT22;8734;59.272;17.780;2023-03-22T05:08:19;3.90;99.90
17236;DHT22;8734;59.272;17.780;2023-03-22T05:10:48;3.90;99.90
17236;DHT22;8734;59.272;17.780;2023-03-22T05:13:17;4.00;99.90
17236;DHT22;8734;59.272;17.780;2023-03-22T05:15:47;3.90;99.90
17236;DHT22;8734;59.272;17.780;2023-03-22T05:18:16;4.00;99.90
17236;DHT22;8734;59.272;17.780;2023-03-22T05:20:47;4.00;99.90
17236;DHT22;8734;59.272;17.780;2023-03-22T05:23:16;4.00;99.90
17236;DHT22;8734;59.272;17.780;2023-03-22T05:25:47;4.00;99.90
17236;DHT22;8734;59.272;17.780;2023-03-22T05:28:17;4.00;99.90
17236;DHT22;8734;59.272;17.780;2023-03-22T05:30:48;4.00;99.90
17236;DHT22;8734;59.272;17.780;2023-03-22T05:33:18;4.00;99.90
17236;DHT22;8734;59.272;17.780;2023-03-22T05:35:48;4.00;99.90
17236;DHT22;8734;59.272;17.780;2023-03-22T05:38:17;4.00;99.90
17236;DHT22;8734;59.272;17.780;2023-03-22T05:40:45;4.10;99.90
17236;DHT22;8734;59.272;17.780;2023-03-22T05:43:13;4.10;99.90
17236;DHT22;8734;59.272;17.780;2023-03-22T05:45:42;4.10;99.90
17236;DHT22;8734;59.272;17.780;2023-03-22T05:48:13;4.10;99.90
17236;DHT22;8734;59.272;17.780;2023-03-22T05:50:41;4.10;99.90
17236;DHT22;8734;59.272;17.780;2023-03-22T05:53:09;4.20;99.90
17236;DHT22;8734;59.272;17.780;2023-03-22T05:55:38;4.20;99.90
17236;DHT22;8734;59.272;17.780;2023-03-22T05:58:06;4.30;99.90
17236;DHT22;8734;59.272;17.780;2023-03-22T06:00:35;4.40;99.90
17236;DHT22;8734;59.272;17.780;2023-03-22T06:03:04;4.40;99.90
17236;DHT22;8734;59.272;17.780;2023-03-22T06:05:35;4.40;99.90
17236;DHT22;8734;59.272;17.780;2023-03-22T06:08:03;4.50;99.90
17236;DHT22;8734;59.272;17.780;2023-03-22T06:10:32;4.50;99.90
17236;DHT22;8734;59.272;17.780;2023-03-22T06:13:00;4.40;99.90
17236;DHT22;8734;59.272;17.780;2023-03-22T06:15:28;4.50;99.90
17236;DHT22;8734;59.272;17.780;2023-03-22T06:17:56;4.50;99.90
17236;DHT22;8734;59.272;17.780;2023-03-22T06:20:24;4.60;99.90
17236;DHT22;8734;59.272;17.780;2023-03-22T06:22:54;4.70;99.90
17236;DHT22;8734;59.272;17.780;2023-03-22T06:25:22;4.70;99.90
17236;DHT22;8734;59.272;17.780;2023-03-22T06:27:51;4.80;99.90
17236;DHT22;8734;59.272;17.780;2023-03-22T06:30:19;4.80;99.90
17236;DHT22;8734;59.272;17.780;2023-03-22T06:32:47;4.90;99.90
17236;DHT22;8734;59.272;17.780;2023-03-22T06:35:16;4.90;99.90
17236;DHT22;8734;59.272;17.780;2023-03-22T06:37:44;5.00;99.90
17236;DHT22;8734;59.272;17.780;2023-03-22T06:40:14;5.00;99.90
17236;DHT22;8734;59.272;17.780;2023-03-22T06:42:42;5.00;99.90
17236;DHT22;8734;59.272;17.780;2023-03-22T06:45:11;5.00;99.90
17236;DHT22;8734;59.272;17.780;2023-03-22T06:47:40;5.00;99.90
17236;DHT22;8734;59.272;17.780;2023-03-22T06:50:09;5.10;99.90
17236;DHT22;8734;59.272;17.780;2023-03-22T06:52:38;5.10;99.90
17236;DHT22;8734;59.272;17.780;2023-03-22T06:55:08;5.10;99.90
17236;DHT22;8734;59.272;17.780;2023-03-22T06:57:37;5.10;99.90
17236;DHT22;8734;59.272;17.780;2023-03-22T07:00:07;5.10;99.90
17236;DHT22;8734;59.272;17.780;2023-03-22T07:02:36;5.10;99.90
17236;DHT22;8734;59.272;17.780;2023-03-22T07:05:04;5.20;99.90
17236;DHT22;8734;59.272;17.780;2023-03-22T07:07:33;5.20;99.90
17236;DHT22;8734;59.272;17.780;2023-03-22T07:10:02;5.20;99.90
17236;DHT22;8734;59.272;17.780;2023-03-22T07:12:31;5.30;99.90
17236;DHT22;8734;59.272;17.780;2023-03-22T07:15:00;5.30;99.90
17236;DHT22;8734;59.272;17.780;2023-03-22T07:17:29;5.50;99.90
17236;DHT22;8734;59.272;17.780;2023-03-22T07:19:57;5.60;99.90
17236;DHT22;8734;59.272;17.780;2023-03-22T07:22:25;5.60;99.90
17236;DHT22;8734;59.272;17.780;2023-03-22T07:24:54;5.70;99.90
17236;DHT22;8734;59.272;17.780;2023-03-22T07:27:26;5.70;99.90
17236;DHT22;8734;59.272;17.780;2023-03-22T07:29:54;5.80;99.90
17236;DHT22;8734;59.272;17.780;2023-03-22T07:32:24;5.80;99.90
17236;DHT22;8734;59.272;17.780;2023-03-22T07:34:52;5.80;99.90
17236;DHT22;8734;59.272;17.780;2023-03-22T07:37:21;5.80;99.90
17236;DHT22;8734;59.272;17.780;2023-03-22T07:39:49;5.80;99.90
17236;DHT22;8734;59.272;17.780;2023-03-22T07:42:17;5.80;99.90
17236;DHT22;8734;59.272;17.780;2023-03-22T07:44:45;5.90;99.90
17236;DHT22;8734;59.272;17.780;2023-03-22T07:47:15;5.80;99.90
17236;DHT22;8734;59.272;17.780;2023-03-22T07:50:01;5.90;99.90
17236;DHT22;8734;59.272;17.780;2023-03-22T07:52:29;5.90;99.90
17236;DHT22;8734;59.272;17.780;2023-03-22T07:54:58;5.90;99.90
17236;DHT22;8734;59.272;17.780;2023-03-22T07:57:26;5.90;99.90
17236;DHT22;8734;59.272;17.780;2023-03-22T07:59:54;6.00;99.90
17236;DHT22;8734;59.272;17.780;2023-03-22T08:02:23;6.10;99.90
17236;DHT22;8734;59.272;17.780;2023-03-22T08:04:52;6.10;99.90
17236;DHT22;8734;59.272;17.780;2023-03-22T08:07:23;6.10;99.90
17236;DHT22;8734;59.272;17.780;2023-03-22T08:09:52;6.20;99.90
17236;DHT22;8734;59.272;17.780;2023-03-22T08:12:20;6.30;99.90
17236;DHT22;8734;59.272;17.780;2023-03-22T08:14:49;6.20;99.90
17236;DHT22;8734;59.272;17.780;2023-03-22T08:17:19;6.20;99.90
17236;DHT22;8734;59.272;17.780;2023-03-22T08:19:47;6.20;99.90
17236;DHT22;8734;59.272;17.780;2023-03-22T08:22:15;6.20;99.90
17236;DHT22;8734;59.272;17.780;2023-03-22T08:24:45;6.20;99.90
17236;DHT22;8734;59.272;17.780;2023-03-22T08:27:13;6.20;99.90
17236;DHT22;8734;59.272;17.780;2023-03-22T08:29:42;6.20;99.90
17236;DHT22;8734;59.272;17.780;2023-03-22T08:32:11;6.20;99.90
17236;DHT22;8734;59.272;17.780;2023-03-22T08:34:40;6.20;99.90
17236;DHT22;8734;59.272;17.780;2023-03-22T08:37:10;6.30;99.90
17236;DHT22;8734;59.272;17.780;2023-03-22T08:39:39;6.30;99.90
17236;DHT22;8734;59.272;17.780;2023-03-22T08:42:09;6.40;99.90
17236;DHT22;8734;59.272;17.780;2023-03-22T08:44:37;6.50;99.90
17236;DHT22;8734;59.272;17.780;2023-03-22T08:47:06;6.60;99.90
17236;DHT22;8734;59.272;17.780;2023-03-22T08:49:34;6.80;99.90
17236;DHT22;8734;59.272;17.780;2023-03-22T08:52:03;6.80;99.90
17236;DHT22;8734;59.272;17.780;2023-03-22T08:54:33;6.90;99.90
17236;DHT22;8734;59.272;17.780;2023-03-22T08:57:02;7.00;99.90
17236;DHT22;8734;59.272;17.780;2023-03-22T08:59:32;7.00;99.90
17236;DHT22;8734;59.272;17.780;2023-03-22T09:02:00;7.00;99.90
17236;DHT22;8734;59.272;17.780;2023-03-22T09:04:29;7.00;99.90
17236;DHT22;8734;59.272;17.780;2023-03-22T09:06:58;7.00;99.90
17236;DHT22;8734;59.272;17.780;2023-03-22T09:09:26;7.00;99.90
17236;DHT22;8734;59.272;17.780;2023-03-22T09:11:55;7.00;99.90
17236;DHT22;8734;59.272;17.780;2023-03-22T09:14:24;7.10;99.90
17236;DHT22;8734;59.272;17.780;2023-03-22T09:16:53;7.20;99.90
17236;DHT22;8734;59.272;17.780;2023-03-22T09:19:22;7.20;99.90
17236;DHT22;8734;59.272;17.780;2023-03-22T09:21:50;7.20;99.90
17236;DHT22;8734;59.272;17.780;2023-03-22T09:24:19;7.30;99.90
17236;DHT22;8734;59.272;17.780;2023-03-22T09:26:48;7.30;99.90
17236;DHT22;8734;59.272;17.780;2023-03-22T09:29:17;7.50;99.90
17236;DHT22;8734;59.272;17.780;2023-03-22T09:31:46;7.80;99.90
17236;DHT22;8734;59.272;17.780;2023-03-22T09:34:17;8.00;99.90
17236;DHT22;8734;59.272;17.780;2023-03-22T09:36:45;8.10;99.90
17236;DHT22;8734;59.272;17.780;2023-03-22T09:39:14;8.40;99.90
17236;DHT22;8734;59.272;17.780;2023-03-22T09:41:46;8.90;99.90
17236;DHT22;8734;59.272;17.780;2023-03-22T09:44:19;9.10;99.90
17236;DHT22;8734;59.272;17.780;2023-03-22T09:46:52;9.40;99.90
17236;DHT22;8734;59.272;17.780;2023-03-22T09:49:26;9.70;99.90
17236;DHT22;8734;59.272;17.780;2023-03-22T09:51:55;9.70;99.90
17236;DHT22;8734;59.272;17.780;2023-03-22T09:54:31;9.60;99.90
17236;DHT22;8734;59.272;17.780;2023-03-22T09:57:02;9.40;99.90
17236;DHT22;8734;59.272;17.780;2023-03-22T09:59:37;9.30;99.90
17236;DHT22;8734;59.272;17.780;2023-03-22T10:02:26;9.10;99.90
17236;DHT22;8734;59.272;17.780;2023-03-22T10:05:09;9.10;99.90
17236;DHT22;8734;59.272;17.780;2023-03-22T10:07:51;9.00;99.90
17236;DHT22;8734;59.272;17.780;2023-03-22T10:10:25;9.00;99.90
17236;DHT22;8734;59.272;17.780;2023-03-22T10:12:57;9.00;99.90
17236;DHT22;8734;59.272;17.780;2023-03-22T10:15:31;8.90;99.90
17236;DHT22;8734;59.272;17.780;2023-03-22T10:18:02;9.00;99.90
17236;DHT22;8734;59.272;17.780;2023-03-22T10:20:38;8.90;99.90
17236;DHT22;8734;59.272;17.780;2023-03-22T10:23:13;8.90;99.90
17236;DHT22;8734;59.272;17.780;2023-03-22T10:25:45;8.90;99.90
17236;DHT22;8734;59.272;17.780;2023-03-22T10:28:17;8.90;99.90
17236;DHT22;8734;59.272;17.780;2023-03-22T10:30:50;8.90;99.90
17236;DHT22;8734;59.272;17.780;2023-03-22T10:33:27;9.10;99.90
17236;DHT22;8734;59.272;17.780;2023-03-22T10:36:00;9.10;99.90
17236;DHT22;8734;59.272;17.780;2023-03-22T10:38:29;9.10;99.90
17236;DHT22;8734;59.272;17.780;2023-03-22T10:40:59;9.10;99.90
17236;DHT22;8734;59.272;17.780;2023-03-22T10:43:31;9.00;99.90
17236;DHT22;8734;59.272;17.780;2023-03-22T10:46:04;8.90;99.90
17236;DHT22;8734;59.272;17.780;2023-03-22T10:48:36;8.90;99.90
17236;DHT22;8734;59.272;17.780;2023-03-22T10:51:14;9.00;99.90
17236;DHT22;8734;59.272;17.780;2023-03-22T10:53:47;8.90;99.90
17236;DHT22;8734;59.272;17.780;2023-03-22T10:56:18;8.80;99.90
17236;DHT22;8734;59.272;17.780;2023-03-22T10:58:48;8.80;99.90
17236;DHT22;8734;59.272;17.780;2023-03-22T11:01:25;8.80;99.90
17236;DHT22;8734;59.272;17.780;2023-03-22T11:03:56;8.90;99.90
17236;DHT22;8734;59.272;17.780;2023-03-22T11:06:27;8.80;99.90
17236;DHT22;8734;59.272;17.780;2023-03-22T11:09:00;8.90;99.90
17236;DHT22;8734;59.272;17.780;2023-03-22T11:11:31;8.90;99.90
17236;DHT22;8734;59.272;17.780;2023-03-22T11:14:05;8.90;99.90
17236;DHT22;8734;59.272;17.780;2023-03-22T11:16:42;9.10;99.90
17236;DHT22;8734;59.272;17.780;2023-03-22T11:19:14;9.10;99.90
17236;DHT22;8734;59.272;17.780;2023-03-22T11:21:45;9.10;99.90
17236;DHT22;8734;59.272;17.780;2023-03-22T11:24:13;9.00;99.90
17236;DHT22;8734;59.272;17.780;2023-03-22T11:26:42;9.00;99.90
17236;DHT22;8734;59.272;17.780;2023-03-22T11:29:38;8.90;99.90
17236;DHT22;8734;59.272;17.780;2023-03-22T11:32:20;8.80;99.90
17236;DHT22;8734;59.272;17.780;2023-03-22T11:34:58;8.90;99.90
17236;DHT22;8734;59.272;17.780;2023-03-22T11:37:28;9.00;99.90
17236;DHT22;8734;59.272;17.780;2023-03-22T11:39:59;9.00;99.90
17236;DHT22;8734;59.272;17.780;2023-03-22T11:42:33;9.20;99.90
17236;DHT22;8734;59.272;17.780;2023-03-22T11:45:03;9.40;99.90
17236;DHT22;8734;59.272;17.780;2023-03-22T11:47:35;9.40;99.90
17236;DHT22;8734;59.272;17.780;2023-03-22T11:50:06;9.60;99.90
17236;DHT22;8734;59.272;17.780;2023-03-22T11:52:37;9.60;99.90
17236;DHT22;8734;59.272;17.780;2023-03-22T11:55:11;9.70;99.90
17236;DHT22;8734;59.272;17.780;2023-03-22T11:57:40;9.60;99.90
17236;DHT22;8734;59.272;17.780;2023-03-22T12:00:16;9.60;99.90
17236;DHT22;8734;59.272;17.780;2023-03-22T12:02:49;9.80;99.90
17236;DHT22;8734;59.272;17.780;2023-03-22T12:05:22;9.80;99.90
17236;DHT22;8734;59.272;17.780;2023-03-22T12:07:58;9.70;99.90
17236;DHT22;8734;59.272;17.780;2023-03-22T12:10:30;9.80;99.90
17236;DHT22;8734;59.272;17.780;2023-03-22T12:13:03;9.60;99.90
17236;DHT22;8734;59.272;17.780;2023-03-22T12:15:38;9.40;99.90
17236;DHT22;8734;59.272;17.780;2023-03-22T12:18:12;9.30;99.90
17236;DHT22;8734;59.272;17.780;2023-03-22T12:20:48;9.30;99.90
17236;DHT22;8734;59.272;17.780;2023-03-22T12:23:20;9.50;99.90
17236;DHT22;8734;59.272;17.780;2023-03-22T12:25:52;9.80;99.90
17236;DHT22;8734;59.272;17.780;2023-03-22T12:28:26;9.90;99.90
17236;DHT22;8734;59.272;17.780;2023-03-22T12:30:55;9.90;99.90
17236;DHT22;8734;59.272;17.780;2023-03-22T12:33:26;9.60;99.90
17236;DHT22;8734;59.272;17.780;2023-03-22T12:35:57;9.30;99.90
17236;DHT22;8734;59.272;17.780;2023-03-22T12:38:31;9.20;99.90
17236;DHT22;8734;59.272;17.780;2023-03-22T12:41:06;9.30;99.90
17236;DHT22;8734;59.272;17.780;2023-03-22T12:43:45;9.30;99.90
17236;DHT22;8734;59.272;17.780;2023-03-22T12:46:19;9.40;99.90
17236;DHT22;8734;59.272;17.780;2023-03-22T12:48:51;9.50;99.90
17236;DHT22;8734;59.272;17.780;2023-03-22T12:51:20;9.60;99.90
17236;DHT22;8734;59.272;17.780;2023-03-22T12:53:52;9.60;99.90
17236;DHT22;8734;59.272;17.780;2023-03-22T12:56:24;9.50;99.90
17236;DHT22;8734;59.272;17.780;2023-03-22T12:58:55;9.40;99.90
17236;DHT22;8734;59.272;17.780;2023-03-22T13:01:30;9.50;99.90
17236;DHT22;8734;59.272;17.780;2023-03-22T13:04:31;9.60;99.90
17236;DHT22;8734;59.272;17.780;2023-03-22T13:07:16;9.70;99.90
17236;DHT22;8734;59.272;17.780;2023-03-22T13:09:59;10.00;99.90
17236;DHT22;8734;59.272;17.780;2023-03-22T13:12:31;10.00;99.90
17236;DHT22;8734;59.272;17.780;2023-03-22T13:15:19;9.90;99.90
17236;DHT22;8734;59.272;17.780;2023-03-22T13:18:27;9.70;99.90
17236;DHT22;8734;59.272;17.780;2023-03-22T13:21:12;9.60;99.90
17236;DHT22;8734;59.272;17.780;2023-03-22T13:23:53;9.80;99.90
17236;DHT22;8734;59.272;17.780;2023-03-22T13:26:30;10.00;99.90
17236;DHT22;8734;59.272;17.780;2023-03-22T13:29:07;9.90;99.90
17236;DHT22;8734;59.272;17.780;2023-03-22T13:31:40;9.70;99.90
17236;DHT22;8734;59.272;17.780;2023-03-22T13:34:14;9.60;99.90
17236;DHT22;8734;59.272;17.780;2023-03-22T13:36:51;9.70;99.90
17236;DHT22;8734;59.272;17.780;2023-03-22T13:39:22;9.90;99.90
17236;DHT22;8734;59.272;17.780;2023-03-22T13:42:17;9.90;99.90
17236;DHT22;8734;59.272;17.780;2023-03-22T13:44:52;10.00;99.90
17236;DHT22;8734;59.272;17.780;2023-03-22T13:47:33;10.00;99.90
17236;DHT22;8734;59.272;17.780;2023-03-22T13:50:12;10.00;99.90
17236;DHT22;8734;59.272;17.780;2023-03-22T13:52:44;10.10;99.90
17236;DHT22;8734;59.272;17.780;2023-03-22T13:55:57;10.00;99.90
17236;DHT22;8734;59.272;17.780;2023-03-22T13:58:35;10.10;99.90
17236;DHT22;8734;59.272;17.780;2023-03-22T14:01:06;10.20;99.90
17236;DHT22;8734;59.272;17.780;2023-03-22T14:03:41;10.30;99.90
17236;DHT22;8734;59.272;17.780;2023-03-22T14:06:14;10.20;99.90
17236;DHT22;8734;59.272;17.780;2023-03-22T14:08:45;10.20;99.90
17236;DHT22;8734;59.272;17.780;2023-03-22T14:11:20;10.20;99.90
17236;DHT22;8734;59.272;17.780;2023-03-22T14:13:54;10.10;99.90
17236;DHT22;8734;59.272;17.780;2023-03-22T14:16:34;10.00;99.90
17236;DHT22;8734;59.272;17.780;2023-03-22T14:19:05;10.00;99.90
17236;DHT22;8734;59.272;17.780;2023-03-22T14:21:38;10.00;99.90
17236;DHT22;8734;59.272;17.780;2023-03-22T14:24:12;10.00;99.90
17236;DHT22;8734;59.272;17.780;2023-03-22T14:26:42;9.90;99.90
17236;DHT22;8734;59.272;17.780;2023-03-22T14:29:14;9.80;99.90
17236;DHT22;8734;59.272;17.780;2023-03-22T14:31:44;9.80;99.90
17236;DHT22;8734;59.272;17.780;2023-03-22T14:34:13;9.70;99.90
17236;DHT22;8734;59.272;17.780;2023-03-22T14:36:43;9.70;99.90
17236;DHT22;8734;59.272;17.780;2023-03-22T14:39:13;9.60;99.90
17236;DHT22;8734;59.272;17.780;2023-03-22T14:41:58;9.60;99.90
17236;DHT22;8734;59.272;17.780;2023-03-22T14:44:28;9.50;99.90
17236;DHT22;8734;59.272;17.780;2023-03-22T14:47:08;9.40;99.90
17236;DHT22;8734;59.272;17.780;2023-03-22T14:49:40;9.30;99.90
17236;DHT22;8734;59.272;17.780;2023-03-22T14:52:14;9.10;99.90
17236;DHT22;8734;59.272;17.780;2023-03-22T14:54:43;9.10;99.90
17236;DHT22;8734;59.272;17.780;2023-03-22T14:57:13;9.00;99.90
17236;DHT22;8734;59.272;17.780;2023-03-22T14:59:45;9.00;99.90
17236;DHT22;8734;59.272;17.780;2023-03-22T15:02:21;9.00;99.90
17236;DHT22;8734;59.272;17.780;2023-03-22T15:04:50;8.90;99.90
17236;DHT22;8734;59.272;17.780;2023-03-22T15:07:18;8.90;99.90
17236;DHT22;8734;59.272;17.780;2023-03-22T15:09:46;8.80;99.90
17236;DHT22;8734;59.272;17.780;2023-03-22T15:12:14;8.70;99.90
17236;DHT22;8734;59.272;17.780;2023-03-22T15:14:44;8.60;99.90
17236;DHT22;8734;59.272;17.780;2023-03-22T15:17:13;8.50;99.90
17236;DHT22;8734;59.272;17.780;2023-03-22T15:19:46;8.40;99.90
17236;DHT22;8734;59.272;17.780;2023-03-22T15:22:16;8.40;99.90
17236;DHT22;8734;59.272;17.780;2023-03-22T15:24:49;8.30;99.90
17236;DHT22;8734;59.272;17.780;2023-03-22T15:27:17;8.20;99.90
17236;DHT22;8734;59.272;17.780;2023-03-22T15:29:47;8.20;99.90
17236;DHT22;8734;59.272;17.780;2023-03-22T15:32:17;8.20;99.90
17236;DHT22;8734;59.272;17.780;2023-03-22T15:34:45;8.20;99.90
17236;DHT22;8734;59.272;17.780;2023-03-22T15:37:16;8.10;99.90
17236;DHT22;8734;59.272;17.780;2023-03-22T15:39:47;8.10;99.90
17236;DHT22;8734;59.272;17.780;2023-03-22T15:42:17;8.10;99.90
17236;DHT22;8734;59.272;17.780;2023-03-22T15:44:56;8.00;99.90
17236;DHT22;8734;59.272;17.780;2023-03-22T15:47:24;8.00;99.90
17236;DHT22;8734;59.272;17.780;2023-03-22T15:49:54;8.00;99.90
17236;DHT22;8734;59.272;17.780;2023-03-22T15:52:23;8.00;99.90
17236;DHT22;8734;59.272;17.780;2023-03-22T15:54:59;7.90;99.90
17236;DHT22;8734;59.272;17.780;2023-03-22T15:57:39;7.90;99.90
17236;DHT22;8734;59.272;17.780;2023-03-22T16:00:19;7.80;99.90
17236;DHT22;8734;59.272;17.780;2023-03-22T16:02:56;7.70;99.90
17236;DHT22;8734;59.272;17.780;2023-03-22T16:05:24;7.70;99.90
17236;DHT22;8734;59.272;17.780;2023-03-22T16:07:53;7.60;99.90
17236;DHT22;8734;59.272;17.780;2023-03-22T16:10:24;7.60;99.90
17236;DHT22;8734;59.272;17.780;2023-03-22T16:12:53;7.60;99.90
17236;DHT22;8734;59.272;17.780;2023-03-22T16:15:25;7.60;99.90
17236;DHT22;8734;59.272;17.780;2023-03-22T16:17:53;7.60;99.90
17236;DHT22;8734;59.272;17.780;2023-03-22T16:20:20;7.50;99.90
17236;DHT22;8734;59.272;17.780;2023-03-22T16:22:49;7.50;99.90
17236;DHT22;8734;59.272;17.780;2023-03-22T16:25:18;7.40;99.90
17236;DHT22;8734;59.272;17.780;2023-03-22T16:27:46;7.40;99.90